Marshall Don Hunter Sr Airport
PADM : now visible

Aeroporto :











RITROVATECI SU...

 
LOGIN :

Iscrizione | Disclaimer

   EN    FR    IT 

 









Sommario :    VFR   VFR Marginale   IFR   IFR Intensivo   IFR Molto Intensivo
Visibilità : 
Base nubi : 
>= 8 km
>= 3000ft
5 / 8 km
1000 / 3000 ft
1500m / 5 km
500 / 1000 ft
800 / 1500m
200 / 500 ft
< 800m
< 200 ft
Simboli :   Temporali  Nebbia  Neve Forte  Precipitazioni Forti  Vento > 20 kt






- Altitudine del aeroporto : 103 ft


PADM - Marshall Don Hunter Sr

ULTIMO METAR :
  • 011902Z AUTO 07008KT 10SM OVC065 13/05 A2960 RMK AO2 RAB1817E1833 SLP027 P0000 T01280050

METARs OBSOLETI :
  • 011802Z AUTO 06011KT 10SM SCT065 OVC090 11/06 A2960 RMK AO2 SLP026 T01060056 10117 20028 51008
  • 011702Z AUTO 12012KT 10SM OVC075 11/04 A2959 RMK AO2 SLP023 T01110039

TAF N/A
FIR PAZA / America del Nord



MetMap, La meteo Aeronautica in un colpo d'occhio ! - Copyright ORBIFLY Dicembre 2007 - Disclaimer

ORBIFLY MET'MAP TEAM :

Programmazione e sviluppo : Alexandra Zaïnal
Concezione : Baudouin d'Aumeries
Aiuto per la programmazione : Marc-Olivier Méhu
Supporto tecnico e logistico : Manuel Goepfert
Aiuto per la traduzione : Arnaldo La Scala

Contatto : metmap@orbifly.com




FONTI E CREDITI :

   NOAA       Earth
Advisory